sensor_id;sensor_type;location;lat;lon;timestamp;P1;durP1;ratioP1;P2;durP2;ratioP2
22525;SDS011;11429;50.842;4.386;2023-09-19T00:01:41;9.15;;;2.40;;
22525;SDS011;11429;50.842;4.386;2023-09-19T00:04:10;13.18;;;2.63;;
22525;SDS011;11429;50.842;4.386;2023-09-19T00:06:39;11.10;;;2.70;;
22525;SDS011;11429;50.842;4.386;2023-09-19T00:09:05;15.07;;;2.78;;
22525;SDS011;11429;50.842;4.386;2023-09-19T00:11:35;12.70;;;2.42;;
22525;SDS011;11429;50.842;4.386;2023-09-19T00:14:02;12.27;;;2.38;;
22525;SDS011;11429;50.842;4.386;2023-09-19T00:16:29;9.50;;;2.05;;
22525;SDS011;11429;50.842;4.386;2023-09-19T00:18:57;5.75;;;2.10;;
22525;SDS011;11429;50.842;4.386;2023-09-19T00:21:24;8.00;;;2.10;;
22525;SDS011;11429;50.842;4.386;2023-09-19T00:23:50;10.80;;;2.67;;
22525;SDS011;11429;50.842;4.386;2023-09-19T00:26:16;11.60;;;2.25;;
22525;SDS011;11429;50.842;4.386;2023-09-19T00:28:43;10.63;;;2.90;;
22525;SDS011;11429;50.842;4.386;2023-09-19T00:31:09;14.82;;;2.88;;
22525;SDS011;11429;50.842;4.386;2023-09-19T00:33:35;7.25;;;2.28;;
22525;SDS011;11429;50.842;4.386;2023-09-19T00:36:01;7.78;;;2.53;;
22525;SDS011;11429;50.842;4.386;2023-09-19T00:38:30;7.50;;;2.40;;
22525;SDS011;11429;50.842;4.386;2023-09-19T00:40:57;12.05;;;2.58;;
22525;SDS011;11429;50.842;4.386;2023-09-19T00:43:24;10.77;;;2.90;;
22525;SDS011;11429;50.842;4.386;2023-09-19T00:45:52;8.27;;;2.33;;
22525;SDS011;11429;50.842;4.386;2023-09-19T00:48:20;6.95;;;1.95;;
22525;SDS011;11429;50.842;4.386;2023-09-19T00:50:47;11.05;;;2.40;;
22525;SDS011;11429;50.842;4.386;2023-09-19T00:53:14;13.45;;;2.80;;
22525;SDS011;11429;50.842;4.386;2023-09-19T00:55:43;11.70;;;3.10;;
22525;SDS011;11429;50.842;4.386;2023-09-19T00:58:10;12.13;;;2.63;;
22525;SDS011;11429;50.842;4.386;2023-09-19T01:00:37;11.18;;;2.47;;
22525;SDS011;11429;50.842;4.386;2023-09-19T01:03:03;11.85;;;2.72;;
22525;SDS011;11429;50.842;4.386;2023-09-19T01:05:31;12.85;;;2.97;;
22525;SDS011;11429;50.842;4.386;2023-09-19T01:07:58;8.48;;;2.15;;
22525;SDS011;11429;50.842;4.386;2023-09-19T01:10:24;14.30;;;2.33;;
22525;SDS011;11429;50.842;4.386;2023-09-19T01:13:01;12.88;;;3.00;;
22525;SDS011;11429;50.842;4.386;2023-09-19T01:29:46;11.18;;;3.33;;
22525;SDS011;11429;50.842;4.386;2023-09-19T01:32:15;11.60;;;3.25;;
22525;SDS011;11429;50.842;4.386;2023-09-19T01:34:50;11.60;;;2.17;;
22525;SDS011;11429;50.842;4.386;2023-09-19T01:37:18;13.77;;;3.05;;
22525;SDS011;11429;50.842;4.386;2023-09-19T01:39:49;13.57;;;2.45;;
22525;SDS011;11429;50.842;4.386;2023-09-19T01:48:43;15.80;;;3.00;;
22525;SDS011;11429;50.842;4.386;2023-09-19T01:50:55;20.77;;;3.20;;
22525;SDS011;11429;50.842;4.386;2023-09-19T01:53:26;10.60;;;2.75;;
22525;SDS011;11429;50.842;4.386;2023-09-19T01:56:00;12.30;;;3.17;;
22525;SDS011;11429;50.842;4.386;2023-09-19T01:58:30;11.38;;;2.90;;
22525;SDS011;11429;50.842;4.386;2023-09-19T02:01:11;11.60;;;2.63;;
22525;SDS011;11429;50.842;4.386;2023-09-19T02:03:41;12.63;;;2.83;;
22525;SDS011;11429;50.842;4.386;2023-09-19T02:06:13;8.80;;;2.13;;
22525;SDS011;11429;50.842;4.386;2023-09-19T02:08:44;12.52;;;2.67;;
22525;SDS011;11429;50.842;4.386;2023-09-19T02:11:13;9.20;;;2.38;;
22525;SDS011;11429;50.842;4.386;2023-09-19T02:13:39;10.07;;;2.45;;
22525;SDS011;11429;50.842;4.386;2023-09-19T02:16:06;8.60;;;2.35;;
22525;SDS011;11429;50.842;4.386;2023-09-19T02:18:32;11.75;;;2.78;;
22525;SDS011;11429;50.842;4.386;2023-09-19T02:21:00;10.60;;;2.67;;
22525;SDS011;11429;50.842;4.386;2023-09-19T02:23:26;12.93;;;2.88;;
22525;SDS011;11429;50.842;4.386;2023-09-19T02:25:55;12.48;;;2.70;;
22525;SDS011;11429;50.842;4.386;2023-09-19T02:28:29;12.25;;;3.33;;
22525;SDS011;11429;50.842;4.386;2023-09-19T02:30:57;15.05;;;3.05;;
22525;SDS011;11429;50.842;4.386;2023-09-19T02:33:23;9.52;;;2.53;;
22525;SDS011;11429;50.842;4.386;2023-09-19T02:35:48;9.00;;;2.40;;
22525;SDS011;11429;50.842;4.386;2023-09-19T02:38:15;11.32;;;2.53;;
22525;SDS011;11429;50.842;4.386;2023-09-19T02:40:46;12.27;;;3.20;;
22525;SDS011;11429;50.842;4.386;2023-09-19T02:43:11;13.60;;;2.90;;
22525;SDS011;11429;50.842;4.386;2023-09-19T02:45:37;12.07;;;2.90;;
22525;SDS011;11429;50.842;4.386;2023-09-19T02:48:04;13.27;;;3.30;;
22525;SDS011;11429;50.842;4.386;2023-09-19T02:50:29;12.93;;;2.83;;
22525;SDS011;11429;50.842;4.386;2023-09-19T02:52:55;12.35;;;2.92;;
22525;SDS011;11429;50.842;4.386;2023-09-19T02:55:21;16.05;;;3.15;;
22525;SDS011;11429;50.842;4.386;2023-09-19T02:57:50;10.88;;;2.90;;
22525;SDS011;11429;50.842;4.386;2023-09-19T03:02:48;10.48;;;2.80;;
22525;SDS011;11429;50.842;4.386;2023-09-19T03:05:20;11.63;;;2.88;;
22525;SDS011;11429;50.842;4.386;2023-09-19T03:07:48;12.98;;;2.80;;
22525;SDS011;11429;50.842;4.386;2023-09-19T03:10:15;16.92;;;3.00;;
22525;SDS011;11429;50.842;4.386;2023-09-19T03:12:42;16.90;;;3.85;;
22525;SDS011;11429;50.842;4.386;2023-09-19T03:15:08;13.02;;;3.38;;
22525;SDS011;11429;50.842;4.386;2023-09-19T03:17:34;10.75;;;2.65;;
22525;SDS011;11429;50.842;4.386;2023-09-19T03:20:01;11.82;;;2.53;;
22525;SDS011;11429;50.842;4.386;2023-09-19T03:22:27;14.82;;;3.10;;
22525;SDS011;11429;50.842;4.386;2023-09-19T03:24:53;12.75;;;2.70;;
22525;SDS011;11429;50.842;4.386;2023-09-19T03:27:19;15.10;;;2.90;;
22525;SDS011;11429;50.842;4.386;2023-09-19T03:29:45;8.02;;;1.80;;
22525;SDS011;11429;50.842;4.386;2023-09-19T03:32:12;11.70;;;2.40;;
22525;SDS011;11429;50.842;4.386;2023-09-19T03:34:38;8.60;;;2.47;;
22525;SDS011;11429;50.842;4.386;2023-09-19T03:37:11;14.85;;;2.83;;
22525;SDS011;11429;50.842;4.386;2023-09-19T03:39:37;8.00;;;2.33;;
22525;SDS011;11429;50.842;4.386;2023-09-19T03:42:03;14.90;;;2.63;;
22525;SDS011;11429;50.842;4.386;2023-09-19T03:44:29;11.73;;;2.75;;
22525;SDS011;11429;50.842;4.386;2023-09-19T03:46:55;10.60;;;2.40;;
22525;SDS011;11429;50.842;4.386;2023-09-19T03:49:22;11.75;;;2.85;;
22525;SDS011;11429;50.842;4.386;2023-09-19T03:51:47;10.68;;;2.90;;
22525;SDS011;11429;50.842;4.386;2023-09-19T03:54:13;11.52;;;3.17;;
22525;SDS011;11429;50.842;4.386;2023-09-19T03:56:39;12.35;;;2.55;;
22525;SDS011;11429;50.842;4.386;2023-09-19T03:59:04;13.57;;;2.88;;
22525;SDS011;11429;50.842;4.386;2023-09-19T04:01:31;15.45;;;3.08;;
22525;SDS011;11429;50.842;4.386;2023-09-19T04:03:58;10.23;;;2.75;;
22525;SDS011;11429;50.842;4.386;2023-09-19T04:06:32;9.95;;;2.78;;
22525;SDS011;11429;50.842;4.386;2023-09-19T04:09:00;17.75;;;3.40;;
22525;SDS011;11429;50.842;4.386;2023-09-19T04:11:26;13.65;;;2.75;;
22525;SDS011;11429;50.842;4.386;2023-09-19T04:13:52;14.23;;;2.90;;
22525;SDS011;11429;50.842;4.386;2023-09-19T04:16:18;12.80;;;2.95;;
22525;SDS011;11429;50.842;4.386;2023-09-19T04:18:44;11.70;;;2.45;;
22525;SDS011;11429;50.842;4.386;2023-09-19T04:21:10;12.65;;;2.40;;
22525;SDS011;11429;50.842;4.386;2023-09-19T04:23:36;14.27;;;2.78;;
22525;SDS011;11429;50.842;4.386;2023-09-19T04:26:01;9.82;;;2.72;;
22525;SDS011;11429;50.842;4.386;2023-09-19T04:28:29;10.75;;;2.72;;
22525;SDS011;11429;50.842;4.386;2023-09-19T04:30:56;8.82;;;2.45;;
22525;SDS011;11429;50.842;4.386;2023-09-19T04:33:23;11.60;;;2.88;;
22525;SDS011;11429;50.842;4.386;2023-09-19T04:35:52;8.95;;;2.45;;
22525;SDS011;11429;50.842;4.386;2023-09-19T04:38:18;11.82;;;2.63;;
22525;SDS011;11429;50.842;4.386;2023-09-19T04:40:44;11.40;;;2.88;;
22525;SDS011;11429;50.842;4.386;2023-09-19T04:43:10;12.48;;;2.72;;
22525;SDS011;11429;50.842;4.386;2023-09-19T04:45:36;12.13;;;3.08;;
22525;SDS011;11429;50.842;4.386;2023-09-19T04:48:23;15.62;;;2.84;;
22525;SDS011;11429;50.842;4.386;2023-09-19T04:50:49;10.77;;;2.45;;
22525;SDS011;11429;50.842;4.386;2023-09-19T04:53:16;18.05;;;2.72;;
22525;SDS011;11429;50.842;4.386;2023-09-19T04:55:49;16.73;;;2.80;;
22525;SDS011;11429;50.842;4.386;2023-09-19T04:58:18;12.52;;;2.50;;
22525;SDS011;11429;50.842;4.386;2023-09-19T05:00:45;14.82;;;2.97;;
22525;SDS011;11429;50.842;4.386;2023-09-19T05:03:11;12.82;;;2.97;;
22525;SDS011;11429;50.842;4.386;2023-09-19T05:05:36;11.75;;;3.15;;
22525;SDS011;11429;50.842;4.386;2023-09-19T05:08:03;9.55;;;2.55;;
22525;SDS011;11429;50.842;4.386;2023-09-19T05:10:30;15.45;;;2.65;;
22525;SDS011;11429;50.842;4.386;2023-09-19T05:12:57;17.45;;;3.30;;
22525;SDS011;11429;50.842;4.386;2023-09-19T05:15:23;11.48;;;2.67;;
22525;SDS011;11429;50.842;4.386;2023-09-19T05:17:49;11.65;;;2.60;;
22525;SDS011;11429;50.842;4.386;2023-09-19T05:20:16;16.70;;;2.55;;
22525;SDS011;11429;50.842;4.386;2023-09-19T05:22:52;11.60;;;2.42;;
22525;SDS011;11429;50.842;4.386;2023-09-19T05:25:27;10.63;;;2.53;;
22525;SDS011;11429;50.842;4.386;2023-09-19T05:27:55;42.05;;;5.10;;
22525;SDS011;11429;50.842;4.386;2023-09-19T05:30:22;19.30;;;3.67;;
22525;SDS011;11429;50.842;4.386;2023-09-19T05:32:48;16.38;;;2.60;;
22525;SDS011;11429;50.842;4.386;2023-09-19T05:35:14;15.13;;;3.13;;
22525;SDS011;11429;50.842;4.386;2023-09-19T05:37:40;9.50;;;2.50;;
22525;SDS011;11429;50.842;4.386;2023-09-19T05:40:06;18.08;;;3.35;;
22525;SDS011;11429;50.842;4.386;2023-09-19T05:42:37;11.38;;;2.50;;
22525;SDS011;11429;50.842;4.386;2023-09-19T05:45:04;19.25;;;2.95;;
22525;SDS011;11429;50.842;4.386;2023-09-19T05:47:31;12.23;;;2.85;;
22525;SDS011;11429;50.842;4.386;2023-09-19T05:49:57;19.27;;;3.30;;
22525;SDS011;11429;50.842;4.386;2023-09-19T05:52:24;12.18;;;2.70;;
22525;SDS011;11429;50.842;4.386;2023-09-19T05:54:50;14.95;;;3.30;;
22525;SDS011;11429;50.842;4.386;2023-09-19T05:57:16;11.95;;;2.40;;
22525;SDS011;11429;50.842;4.386;2023-09-19T05:59:41;13.60;;;3.30;;
22525;SDS011;11429;50.842;4.386;2023-09-19T06:02:08;12.93;;;3.08;;
22525;SDS011;11429;50.842;4.386;2023-09-19T06:04:34;14.82;;;2.80;;
22525;SDS011;11429;50.842;4.386;2023-09-19T06:07:00;10.13;;;2.20;;
22525;SDS011;11429;50.842;4.386;2023-09-19T06:09:29;16.02;;;2.75;;
22525;SDS011;11429;50.842;4.386;2023-09-19T06:11:57;17.15;;;3.22;;
22525;SDS011;11429;50.842;4.386;2023-09-19T06:14:23;11.63;;;2.65;;
22525;SDS011;11429;50.842;4.386;2023-09-19T06:16:49;11.07;;;2.78;;
22525;SDS011;11429;50.842;4.386;2023-09-19T06:19:15;9.13;;;2.42;;
22525;SDS011;11429;50.842;4.386;2023-09-19T06:21:41;15.77;;;2.50;;
22525;SDS011;11429;50.842;4.386;2023-09-19T06:24:07;14.95;;;4.50;;
22525;SDS011;11429;50.842;4.386;2023-09-19T06:26:32;13.60;;;2.50;;
22525;SDS011;11429;50.842;4.386;2023-09-19T06:28:58;13.13;;;3.10;;
22525;SDS011;11429;50.842;4.386;2023-09-19T06:31:25;8.98;;;2.03;;
22525;SDS011;11429;50.842;4.386;2023-09-19T06:33:51;8.60;;;2.30;;
22525;SDS011;11429;50.842;4.386;2023-09-19T06:36:18;16.50;;;3.20;;
22525;SDS011;11429;50.842;4.386;2023-09-19T06:38:44;16.30;;;3.00;;
22525;SDS011;11429;50.842;4.386;2023-09-19T06:41:10;11.15;;;2.60;;
22525;SDS011;11429;50.842;4.386;2023-09-19T06:43:37;16.65;;;2.47;;
22525;SDS011;11429;50.842;4.386;2023-09-19T06:46:04;10.27;;;2.60;;
22525;SDS011;11429;50.842;4.386;2023-09-19T06:48:32;10.70;;;2.60;;
22525;SDS011;11429;50.842;4.386;2023-09-19T06:50:58;13.57;;;2.58;;
22525;SDS011;11429;50.842;4.386;2023-09-19T06:53:29;12.35;;;3.13;;
22525;SDS011;11429;50.842;4.386;2023-09-19T06:55:57;15.25;;;3.83;;
22525;SDS011;11429;50.842;4.386;2023-09-19T06:58:23;12.25;;;2.55;;
22525;SDS011;11429;50.842;4.386;2023-09-19T07:00:48;11.25;;;2.80;;
22525;SDS011;11429;50.842;4.386;2023-09-19T07:03:15;11.38;;;2.80;;
22525;SDS011;11429;50.842;4.386;2023-09-19T07:05:47;9.90;;;2.55;;
22525;SDS011;11429;50.842;4.386;2023-09-19T07:08:13;15.77;;;3.22;;
22525;SDS011;11429;50.842;4.386;2023-09-19T07:10:40;17.38;;;3.25;;
22525;SDS011;11429;50.842;4.386;2023-09-19T07:13:13;9.32;;;2.80;;
22525;SDS011;11429;50.842;4.386;2023-09-19T07:15:41;9.40;;;2.72;;
22525;SDS011;11429;50.842;4.386;2023-09-19T07:18:17;13.25;;;2.50;;
22525;SDS011;11429;50.842;4.386;2023-09-19T07:20:43;10.25;;;2.33;;
22525;SDS011;11429;50.842;4.386;2023-09-19T07:23:19;15.95;;;3.17;;
22525;SDS011;11429;50.842;4.386;2023-09-19T07:25:47;12.35;;;2.30;;
22525;SDS011;11429;50.842;4.386;2023-09-19T07:28:13;8.65;;;2.70;;
22525;SDS011;11429;50.842;4.386;2023-09-19T07:30:39;13.65;;;3.15;;
22525;SDS011;11429;50.842;4.386;2023-09-19T07:33:06;14.50;;;2.75;;
22525;SDS011;11429;50.842;4.386;2023-09-19T07:35:36;9.48;;;2.90;;
22525;SDS011;11429;50.842;4.386;2023-09-19T07:38:04;12.73;;;2.42;;
22525;SDS011;11429;50.842;4.386;2023-09-19T07:40:30;11.77;;;2.28;;
22525;SDS011;11429;50.842;4.386;2023-09-19T07:42:56;12.93;;;2.95;;
22525;SDS011;11429;50.842;4.386;2023-09-19T07:45:26;11.02;;;2.72;;
22525;SDS011;11429;50.842;4.386;2023-09-19T07:47:52;13.20;;;2.35;;
22525;SDS011;11429;50.842;4.386;2023-09-19T07:50:19;10.18;;;2.55;;
22525;SDS011;11429;50.842;4.386;2023-09-19T07:52:45;13.85;;;2.72;;
22525;SDS011;11429;50.842;4.386;2023-09-19T07:55:11;14.00;;;2.83;;
22525;SDS011;11429;50.842;4.386;2023-09-19T07:57:42;15.95;;;3.25;;
22525;SDS011;11429;50.842;4.386;2023-09-19T08:00:09;13.00;;;2.72;;
22525;SDS011;11429;50.842;4.386;2023-09-19T08:02:38;12.70;;;2.42;;
22525;SDS011;11429;50.842;4.386;2023-09-19T08:05:09;15.18;;;3.00;;
22525;SDS011;11429;50.842;4.386;2023-09-19T08:07:36;17.52;;;3.20;;
22525;SDS011;11429;50.842;4.386;2023-09-19T08:10:03;9.85;;;2.65;;
22525;SDS011;11429;50.842;4.386;2023-09-19T08:12:29;17.05;;;2.92;;
22525;SDS011;11429;50.842;4.386;2023-09-19T08:14:55;17.38;;;3.08;;
22525;SDS011;11429;50.842;4.386;2023-09-19T08:17:21;12.82;;;3.13;;
22525;SDS011;11429;50.842;4.386;2023-09-19T08:19:50;15.38;;;2.70;;
22525;SDS011;11429;50.842;4.386;2023-09-19T08:22:18;14.30;;;3.42;;
22525;SDS011;11429;50.842;4.386;2023-09-19T08:24:48;15.55;;;4.13;;
22525;SDS011;11429;50.842;4.386;2023-09-19T08:27:14;14.68;;;2.78;;
22525;SDS011;11429;50.842;4.386;2023-09-19T08:29:40;10.85;;;3.03;;
22525;SDS011;11429;50.842;4.386;2023-09-19T08:32:07;9.75;;;2.53;;
22525;SDS011;11429;50.842;4.386;2023-09-19T08:34:33;11.98;;;3.72;;
22525;SDS011;11429;50.842;4.386;2023-09-19T08:36:59;14.75;;;3.58;;
22525;SDS011;11429;50.842;4.386;2023-09-19T08:39:25;13.98;;;3.55;;
22525;SDS011;11429;50.842;4.386;2023-09-19T08:41:57;14.10;;;3.15;;
22525;SDS011;11429;50.842;4.386;2023-09-19T08:44:27;12.52;;;2.92;;
22525;SDS011;11429;50.842;4.386;2023-09-19T08:46:58;10.98;;;3.00;;
22525;SDS011;11429;50.842;4.386;2023-09-19T08:49:33;8.93;;;2.80;;
22525;SDS011;11429;50.842;4.386;2023-09-19T08:52:43;12.07;;;2.95;;
22525;SDS011;11429;50.842;4.386;2023-09-19T08:55:12;14.23;;;3.55;;
22525;SDS011;11429;50.842;4.386;2023-09-19T08:57:45;11.02;;;2.60;;
22525;SDS011;11429;50.842;4.386;2023-09-19T09:00:14;15.70;;;2.65;;
22525;SDS011;11429;50.842;4.386;2023-09-19T09:02:43;14.07;;;2.25;;
22525;SDS011;11429;50.842;4.386;2023-09-19T09:05:10;14.90;;;2.72;;
22525;SDS011;11429;50.842;4.386;2023-09-19T09:07:36;12.77;;;2.92;;
22525;SDS011;11429;50.842;4.386;2023-09-19T09:10:03;9.23;;;2.53;;
22525;SDS011;11429;50.842;4.386;2023-09-19T09:12:29;9.10;;;2.33;;
22525;SDS011;11429;50.842;4.386;2023-09-19T09:14:55;11.13;;;2.88;;
22525;SDS011;11429;50.842;4.386;2023-09-19T09:17:22;7.90;;;2.08;;
22525;SDS011;11429;50.842;4.386;2023-09-19T09:19:49;11.15;;;3.22;;
22525;SDS011;11429;50.842;4.386;2023-09-19T09:22:18;14.65;;;2.97;;
22525;SDS011;11429;50.842;4.386;2023-09-19T09:24:56;7.47;;;2.17;;
22525;SDS011;11429;50.842;4.386;2023-09-19T09:27:30;12.55;;;2.58;;
22525;SDS011;11429;50.842;4.386;2023-09-19T09:29:57;12.05;;;2.60;;
22525;SDS011;11429;50.842;4.386;2023-09-19T09:32:30;9.77;;;2.30;;
22525;SDS011;11429;50.842;4.386;2023-09-19T09:35:00;7.43;;;2.45;;
22525;SDS011;11429;50.842;4.386;2023-09-19T09:37:33;8.50;;;2.33;;
22525;SDS011;11429;50.842;4.386;2023-09-19T09:40:00;11.20;;;2.80;;
22525;SDS011;11429;50.842;4.386;2023-09-19T09:42:41;6.72;;;2.40;;
22525;SDS011;11429;50.842;4.386;2023-09-19T09:45:23;10.93;;;2.72;;
22525;SDS011;11429;50.842;4.386;2023-09-19T09:47:58;7.63;;;2.45;;
22525;SDS011;11429;50.842;4.386;2023-09-19T09:50:29;13.40;;;2.10;;
22525;SDS011;11429;50.842;4.386;2023-09-19T09:53:25;9.65;;;2.28;;
22525;SDS011;11429;50.842;4.386;2023-09-19T09:56:03;8.50;;;2.17;;
22525;SDS011;11429;50.842;4.386;2023-09-19T09:58:36;6.40;;;1.67;;
22525;SDS011;11429;50.842;4.386;2023-09-19T10:01:05;8.00;;;2.70;;
22525;SDS011;11429;50.842;4.386;2023-09-19T10:03:38;11.00;;;2.30;;
22525;SDS011;11429;50.842;4.386;2023-09-19T10:06:09;6.72;;;1.98;;
22525;SDS011;11429;50.842;4.386;2023-09-19T10:11:57;7.90;;;2.05;;
22525;SDS011;11429;50.842;4.386;2023-09-19T10:14:33;9.95;;;2.00;;
22525;SDS011;11429;50.842;4.386;2023-09-19T10:17:04;10.75;;;2.17;;
22525;SDS011;11429;50.842;4.386;2023-09-19T10:19:37;9.15;;;2.35;;
22525;SDS011;11429;50.842;4.386;2023-09-19T10:22:05;5.47;;;1.77;;
22525;SDS011;11429;50.842;4.386;2023-09-19T10:24:34;6.68;;;1.95;;
22525;SDS011;11429;50.842;4.386;2023-09-19T10:27:03;8.23;;;2.17;;
22525;SDS011;11429;50.842;4.386;2023-09-19T10:29:33;7.43;;;1.88;;
22525;SDS011;11429;50.842;4.386;2023-09-19T10:32:01;7.18;;;1.73;;
22525;SDS011;11429;50.842;4.386;2023-09-19T10:34:31;9.35;;;2.58;;
22525;SDS011;11429;50.842;4.386;2023-09-19T10:37:01;6.93;;;2.10;;
22525;SDS011;11429;50.842;4.386;2023-09-19T10:39:34;8.02;;;2.13;;
22525;SDS011;11429;50.842;4.386;2023-09-19T10:42:03;5.75;;;1.75;;
22525;SDS011;11429;50.842;4.386;2023-09-19T10:44:33;8.63;;;2.28;;
22525;SDS011;11429;50.842;4.386;2023-09-19T10:47:08;8.00;;;2.55;;
22525;SDS011;11429;50.842;4.386;2023-09-19T10:49:35;7.45;;;1.90;;
22525;SDS011;11429;50.842;4.386;2023-09-19T10:52:08;5.93;;;2.10;;
22525;SDS011;11429;50.842;4.386;2023-09-19T10:54:38;7.80;;;2.03;;
22525;SDS011;11429;50.842;4.386;2023-09-19T10:57:09;6.25;;;1.65;;
22525;SDS011;11429;50.842;4.386;2023-09-19T10:59:35;12.82;;;2.95;;
22525;SDS011;11429;50.842;4.386;2023-09-19T11:02:16;5.47;;;1.92;;
22525;SDS011;11429;50.842;4.386;2023-09-19T11:04:43;7.90;;;1.77;;
22525;SDS011;11429;50.842;4.386;2023-09-19T11:07:11;6.53;;;1.92;;
22525;SDS011;11429;50.842;4.386;2023-09-19T11:12:11;9.85;;;2.25;;
22525;SDS011;11429;50.842;4.386;2023-09-19T11:15:00;9.00;;;2.35;;
22525;SDS011;11429;50.842;4.386;2023-09-19T11:17:37;6.80;;;1.58;;
22525;SDS011;11429;50.842;4.386;2023-09-19T11:30:33;10.20;;;1.40;;
22525;SDS011;11429;50.842;4.386;2023-09-19T11:35:58;4.68;;;1.35;;
22525;SDS011;11429;50.842;4.386;2023-09-19T11:49:17;5.72;;;1.63;;
22525;SDS011;11429;50.842;4.386;2023-09-19T11:51:50;5.75;;;1.30;;
22525;SDS011;11429;50.842;4.386;2023-09-19T11:54:19;6.72;;;1.50;;
22525;SDS011;11429;50.842;4.386;2023-09-19T11:56:49;7.60;;;1.38;;
22525;SDS011;11429;50.842;4.386;2023-09-19T11:59:20;5.20;;;1.60;;
22525;SDS011;11429;50.842;4.386;2023-09-19T12:01:56;9.38;;;1.63;;
22525;SDS011;11429;50.842;4.386;2023-09-19T12:07:08;8.32;;;1.77;;
22525;SDS011;11429;50.842;4.386;2023-09-19T12:12:19;9.02;;;1.40;;
22525;SDS011;11429;50.842;4.386;2023-09-19T12:14:49;6.03;;;1.10;;
22525;SDS011;11429;50.842;4.386;2023-09-19T12:17:15;8.60;;;2.20;;
22525;SDS011;11429;50.842;4.386;2023-09-19T12:19:51;6.88;;;2.10;;
22525;SDS011;11429;50.842;4.386;2023-09-19T12:22:17;8.07;;;1.38;;
22525;SDS011;11429;50.842;4.386;2023-09-19T12:24:45;3.85;;;1.80;;
22525;SDS011;11429;50.842;4.386;2023-09-19T12:27:11;9.80;;;1.88;;
22525;SDS011;11429;50.842;4.386;2023-09-19T12:29:47;8.43;;;1.33;;
22525;SDS011;11429;50.842;4.386;2023-09-19T12:32:14;4.32;;;1.40;;
22525;SDS011;11429;50.842;4.386;2023-09-19T12:34:42;4.63;;;1.10;;
22525;SDS011;11429;50.842;4.386;2023-09-19T12:37:15;7.55;;;1.40;;
22525;SDS011;11429;50.842;4.386;2023-09-19T12:39:46;7.35;;;1.75;;
22525;SDS011;11429;50.842;4.386;2023-09-19T12:42:18;7.15;;;1.45;;
22525;SDS011;11429;50.842;4.386;2023-09-19T12:44:46;11.60;;;1.75;;
22525;SDS011;11429;50.842;4.386;2023-09-19T12:47:17;4.20;;;1.10;;
22525;SDS011;11429;50.842;4.386;2023-09-19T12:50:22;6.15;;;1.50;;
22525;SDS011;11429;50.842;4.386;2023-09-19T12:52:50;5.13;;;1.40;;
22525;SDS011;11429;50.842;4.386;2023-09-19T13:00:44;4.35;;;1.10;;
22525;SDS011;11429;50.842;4.386;2023-09-19T13:05:59;5.78;;;1.60;;
22525;SDS011;11429;50.842;4.386;2023-09-19T13:08:31;4.68;;;0.80;;
22525;SDS011;11429;50.842;4.386;2023-09-19T13:11:03;8.10;;;1.63;;
22525;SDS011;11429;50.842;4.386;2023-09-19T13:13:39;4.32;;;1.20;;
22525;SDS011;11429;50.842;4.386;2023-09-19T13:16:06;5.00;;;1.13;;
22525;SDS011;11429;50.842;4.386;2023-09-19T13:18:41;5.00;;;1.33;;
22525;SDS011;11429;50.842;4.386;2023-09-19T13:21:09;11.82;;;1.98;;
22525;SDS011;11429;50.842;4.386;2023-09-19T13:23:37;6.28;;;1.20;;
22525;SDS011;11429;50.842;4.386;2023-09-19T13:26:03;7.05;;;1.40;;
22525;SDS011;11429;50.842;4.386;2023-09-19T13:28:31;5.82;;;1.45;;
22525;SDS011;11429;50.842;4.386;2023-09-19T13:30:58;4.57;;;1.10;;
22525;SDS011;11429;50.842;4.386;2023-09-19T13:33:26;6.75;;;1.45;;
22525;SDS011;11429;50.842;4.386;2023-09-19T13:35:55;4.65;;;1.20;;
22525;SDS011;11429;50.842;4.386;2023-09-19T13:38:22;8.18;;;1.30;;
22525;SDS011;11429;50.842;4.386;2023-09-19T13:40:48;7.35;;;1.70;;
22525;SDS011;11429;50.842;4.386;2023-09-19T13:43:14;7.35;;;1.67;;
22525;SDS011;11429;50.842;4.386;2023-09-19T13:45:41;8.50;;;1.38;;
22525;SDS011;11429;50.842;4.386;2023-09-19T13:48:07;6.30;;;1.60;;
22525;SDS011;11429;50.842;4.386;2023-09-19T13:50:37;10.65;;;5.30;;
22525;SDS011;11429;50.842;4.386;2023-09-19T13:53:07;7.05;;;2.33;;
22525;SDS011;11429;50.842;4.386;2023-09-19T13:55:34;5.78;;;1.50;;
22525;SDS011;11429;50.842;4.386;2023-09-19T13:58:00;5.50;;;1.58;;
22525;SDS011;11429;50.842;4.386;2023-09-19T14:00:25;6.03;;;1.85;;
22525;SDS011;11429;50.842;4.386;2023-09-19T14:02:52;8.32;;;1.77;;
22525;SDS011;11429;50.842;4.386;2023-09-19T14:05:18;7.63;;;1.75;;
22525;SDS011;11429;50.842;4.386;2023-09-19T14:07:45;5.00;;;1.38;;
22525;SDS011;11429;50.842;4.386;2023-09-19T14:10:11;10.70;;;2.05;;
22525;SDS011;11429;50.842;4.386;2023-09-19T14:12:37;4.72;;;1.70;;
22525;SDS011;11429;50.842;4.386;2023-09-19T14:15:07;11.77;;;2.40;;
22525;SDS011;11429;50.842;4.386;2023-09-19T14:17:33;12.82;;;2.00;;
22525;SDS011;11429;50.842;4.386;2023-09-19T14:19:59;8.40;;;1.92;;
22525;SDS011;11429;50.842;4.386;2023-09-19T14:22:25;6.95;;;1.73;;
22525;SDS011;11429;50.842;4.386;2023-09-19T14:24:51;5.13;;;1.75;;
22525;SDS011;11429;50.842;4.386;2023-09-19T14:27:17;6.50;;;1.60;;
22525;SDS011;11429;50.842;4.386;2023-09-19T14:29:43;5.40;;;1.80;;
22525;SDS011;11429;50.842;4.386;2023-09-19T14:32:09;6.88;;;1.88;;
22525;SDS011;11429;50.842;4.386;2023-09-19T14:34:35;3.45;;;1.40;;
22525;SDS011;11429;50.842;4.386;2023-09-19T14:37:07;6.47;;;1.67;;
22525;SDS011;11429;50.842;4.386;2023-09-19T14:39:33;3.45;;;1.23;;
22525;SDS011;11429;50.842;4.386;2023-09-19T14:41:58;4.72;;;1.60;;
22525;SDS011;11429;50.842;4.386;2023-09-19T14:44:24;5.10;;;1.67;;
22525;SDS011;11429;50.842;4.386;2023-09-19T14:46:50;7.50;;;1.67;;
22525;SDS011;11429;50.842;4.386;2023-09-19T14:49:16;5.95;;;2.00;;
22525;SDS011;11429;50.842;4.386;2023-09-19T14:51:42;10.85;;;2.38;;
22525;SDS011;11429;50.842;4.386;2023-09-19T14:54:13;6.07;;;1.27;;
22525;SDS011;11429;50.842;4.386;2023-09-19T14:56:42;4.78;;;1.65;;
22525;SDS011;11429;50.842;4.386;2023-09-19T14:59:07;6.22;;;1.90;;
22525;SDS011;11429;50.842;4.386;2023-09-19T15:01:35;5.45;;;1.95;;
22525;SDS011;11429;50.842;4.386;2023-09-19T15:04:01;9.73;;;1.95;;
22525;SDS011;11429;50.842;4.386;2023-09-19T15:06:27;6.30;;;1.90;;
22525;SDS011;11429;50.842;4.386;2023-09-19T15:08:53;6.47;;;1.70;;
22525;SDS011;11429;50.842;4.386;2023-09-19T15:11:19;9.30;;;2.00;;
22525;SDS011;11429;50.842;4.386;2023-09-19T15:13:46;6.60;;;2.00;;
22525;SDS011;11429;50.842;4.386;2023-09-19T15:16:13;23.63;;;3.22;;
22525;SDS011;11429;50.842;4.386;2023-09-19T15:18:40;5.97;;;2.22;;
22525;SDS011;11429;50.842;4.386;2023-09-19T15:21:08;18.42;;;2.25;;
22525;SDS011;11429;50.842;4.386;2023-09-19T15:23:35;5.32;;;1.90;;
22525;SDS011;11429;50.842;4.386;2023-09-19T15:26:02;7.07;;;1.60;;
22525;SDS011;11429;50.842;4.386;2023-09-19T15:28:32;7.35;;;1.60;;
22525;SDS011;11429;50.842;4.386;2023-09-19T15:31:02;10.60;;;2.35;;
22525;SDS011;11429;50.842;4.386;2023-09-19T15:33:28;5.65;;;1.70;;
22525;SDS011;11429;50.842;4.386;2023-09-19T15:38:28;5.40;;;2.08;;
22525;SDS011;11429;50.842;4.386;2023-09-19T15:40:54;8.82;;;2.15;;
22525;SDS011;11429;50.842;4.386;2023-09-19T15:43:20;7.78;;;2.40;;
22525;SDS011;11429;50.842;4.386;2023-09-19T15:45:47;6.28;;;1.95;;
22525;SDS011;11429;50.842;4.386;2023-09-19T15:48:15;6.20;;;1.50;;
22525;SDS011;11429;50.842;4.386;2023-09-19T15:50:46;5.72;;;1.70;;
22525;SDS011;11429;50.842;4.386;2023-09-19T15:53:12;8.15;;;1.35;;
22525;SDS011;11429;50.842;4.386;2023-09-19T15:55:38;11.02;;;2.88;;
22525;SDS011;11429;50.842;4.386;2023-09-19T15:58:05;6.93;;;2.15;;